sensor_id;sensor_type;location;lat;lon;timestamp;temperature;humidity
62991;DHT22;49084;48.204;16.202;2023-09-19T00:00:20;19.10;99.90
62991;DHT22;49084;48.204;16.202;2023-09-19T00:02:56;18.80;99.90
62991;DHT22;49084;48.204;16.202;2023-09-19T00:05:29;18.50;99.90
62991;DHT22;49084;48.204;16.202;2023-09-19T00:07:57;18.30;99.90
62991;DHT22;49084;48.204;16.202;2023-09-19T00:10:26;18.10;99.90
62991;DHT22;49084;48.204;16.202;2023-09-19T00:12:55;18.00;99.90
62991;DHT22;49084;48.204;16.202;2023-09-19T00:15:22;17.80;99.90
62991;DHT22;49084;48.204;16.202;2023-09-19T00:17:47;17.60;99.90
62991;DHT22;49084;48.204;16.202;2023-09-19T00:20:14;17.40;99.90
62991;DHT22;49084;48.204;16.202;2023-09-19T00:22:43;17.20;99.90
62991;DHT22;49084;48.204;16.202;2023-09-19T00:25:09;17.10;99.90
62991;DHT22;49084;48.204;16.202;2023-09-19T00:27:35;17.10;99.90
62991;DHT22;49084;48.204;16.202;2023-09-19T00:30:10;17.00;99.90
62991;DHT22;49084;48.204;16.202;2023-09-19T00:32:40;17.00;99.90
62991;DHT22;49084;48.204;16.202;2023-09-19T00:35:06;17.00;99.90
62991;DHT22;49084;48.204;16.202;2023-09-19T00:37:34;16.90;99.90
62991;DHT22;49084;48.204;16.202;2023-09-19T00:39:59;16.90;99.90
62991;DHT22;49084;48.204;16.202;2023-09-19T00:42:25;16.90;99.90
62991;DHT22;49084;48.204;16.202;2023-09-19T00:44:51;16.90;99.90
62991;DHT22;49084;48.204;16.202;2023-09-19T00:47:18;16.80;99.90
62991;DHT22;49084;48.204;16.202;2023-09-19T00:49:45;16.80;99.90
62991;DHT22;49084;48.204;16.202;2023-09-19T00:52:15;16.80;99.90
62991;DHT22;49084;48.204;16.202;2023-09-19T00:54:41;16.70;99.90
62991;DHT22;49084;48.204;16.202;2023-09-19T00:57:07;16.70;99.90
62991;DHT22;49084;48.204;16.202;2023-09-19T00:59:34;16.70;99.90
62991;DHT22;49084;48.204;16.202;2023-09-19T01:02:02;16.60;99.90
62991;DHT22;49084;48.204;16.202;2023-09-19T01:04:28;16.60;99.90
62991;DHT22;49084;48.204;16.202;2023-09-19T01:06:54;16.60;99.90
62991;DHT22;49084;48.204;16.202;2023-09-19T01:09:20;16.60;99.90
62991;DHT22;49084;48.204;16.202;2023-09-19T01:11:48;16.50;99.90
62991;DHT22;49084;48.204;16.202;2023-09-19T01:14:34;16.50;99.90
62991;DHT22;49084;48.204;16.202;2023-09-19T01:17:14;16.40;99.90
62991;DHT22;49084;48.204;16.202;2023-09-19T01:30:35;16.30;99.90
62991;DHT22;49084;48.204;16.202;2023-09-19T01:33:06;16.20;99.90
62991;DHT22;49084;48.204;16.202;2023-09-19T01:35:31;16.20;99.90
62991;DHT22;49084;48.204;16.202;2023-09-19T01:37:59;16.10;99.90
62991;DHT22;49084;48.204;16.202;2023-09-19T01:40:25;16.10;99.90
62991;DHT22;49084;48.204;16.202;2023-09-19T01:43:01;16.10;99.90
62991;DHT22;49084;48.204;16.202;2023-09-19T01:46:03;16.10;99.90
62991;DHT22;49084;48.204;16.202;2023-09-19T01:48:52;16.10;99.90
62991;DHT22;49084;48.204;16.202;2023-09-19T01:51:26;16.10;99.90
62991;DHT22;49084;48.204;16.202;2023-09-19T01:54:01;16.10;99.90
62991;DHT22;49084;48.204;16.202;2023-09-19T01:56:36;16.10;99.90
62991;DHT22;49084;48.204;16.202;2023-09-19T01:59:07;16.10;99.90
62991;DHT22;49084;48.204;16.202;2023-09-19T02:01:34;16.10;99.90
62991;DHT22;49084;48.204;16.202;2023-09-19T02:04:02;16.10;99.90
62991;DHT22;49084;48.204;16.202;2023-09-19T02:06:28;16.10;99.90
62991;DHT22;49084;48.204;16.202;2023-09-19T02:08:54;16.20;99.90
62991;DHT22;49084;48.204;16.202;2023-09-19T02:11:21;16.20;99.90
62991;DHT22;49084;48.204;16.202;2023-09-19T02:13:46;16.10;99.90
62991;DHT22;49084;48.204;16.202;2023-09-19T02:16:12;16.10;99.90
62991;DHT22;49084;48.204;16.202;2023-09-19T02:18:39;16.10;99.90
62991;DHT22;49084;48.204;16.202;2023-09-19T02:21:04;16.00;99.90
62991;DHT22;49084;48.204;16.202;2023-09-19T02:23:32;16.00;99.90
62991;DHT22;49084;48.204;16.202;2023-09-19T02:25:59;16.00;99.90
62991;DHT22;49084;48.204;16.202;2023-09-19T02:28:29;16.00;99.90
62991;DHT22;49084;48.204;16.202;2023-09-19T02:30:56;16.10;99.90
62991;DHT22;49084;48.204;16.202;2023-09-19T02:33:22;16.00;99.90
62991;DHT22;49084;48.204;16.202;2023-09-19T02:35:47;16.00;99.90
62991;DHT22;49084;48.204;16.202;2023-09-19T02:38:13;16.00;99.90
62991;DHT22;49084;48.204;16.202;2023-09-19T02:40:40;16.10;99.90
62991;DHT22;49084;48.204;16.202;2023-09-19T02:43:05;16.10;99.90
62991;DHT22;49084;48.204;16.202;2023-09-19T02:45:33;16.10;99.90
62991;DHT22;49084;48.204;16.202;2023-09-19T02:47:59;16.10;99.90
62991;DHT22;49084;48.204;16.202;2023-09-19T02:50:25;16.10;99.90
62991;DHT22;49084;48.204;16.202;2023-09-19T02:52:51;16.20;99.90
62991;DHT22;49084;48.204;16.202;2023-09-19T02:55:18;16.20;99.90
62991;DHT22;49084;48.204;16.202;2023-09-19T02:57:52;16.30;99.90
62991;DHT22;49084;48.204;16.202;2023-09-19T03:00:19;16.30;99.90
62991;DHT22;49084;48.204;16.202;2023-09-19T03:02:49;16.30;99.90
62991;DHT22;49084;48.204;16.202;2023-09-19T03:05:14;16.40;99.90
62991;DHT22;49084;48.204;16.202;2023-09-19T03:07:40;16.40;99.90
62991;DHT22;49084;48.204;16.202;2023-09-19T03:10:08;16.40;99.90
62991;DHT22;49084;48.204;16.202;2023-09-19T03:12:34;16.40;99.90
62991;DHT22;49084;48.204;16.202;2023-09-19T03:15:00;16.40;99.90
62991;DHT22;49084;48.204;16.202;2023-09-19T03:17:25;16.40;99.90
62991;DHT22;49084;48.204;16.202;2023-09-19T03:19:51;16.40;99.90
62991;DHT22;49084;48.204;16.202;2023-09-19T03:22:17;16.40;99.90
62991;DHT22;49084;48.204;16.202;2023-09-19T03:24:43;16.40;99.90
62991;DHT22;49084;48.204;16.202;2023-09-19T03:27:10;16.50;99.90
62991;DHT22;49084;48.204;16.202;2023-09-19T03:29:36;16.50;99.90
62991;DHT22;49084;48.204;16.202;2023-09-19T03:32:01;16.50;99.90
62991;DHT22;49084;48.204;16.202;2023-09-19T03:34:27;16.60;99.90
62991;DHT22;49084;48.204;16.202;2023-09-19T03:36:52;16.60;99.90
62991;DHT22;49084;48.204;16.202;2023-09-19T03:39:18;16.60;99.90
62991;DHT22;49084;48.204;16.202;2023-09-19T03:41:44;16.60;99.90
62991;DHT22;49084;48.204;16.202;2023-09-19T03:44:10;16.70;99.90
62991;DHT22;49084;48.204;16.202;2023-09-19T03:46:36;16.70;99.90
62991;DHT22;49084;48.204;16.202;2023-09-19T03:49:02;16.70;99.90
62991;DHT22;49084;48.204;16.202;2023-09-19T03:51:28;16.70;99.90
62991;DHT22;49084;48.204;16.202;2023-09-19T03:53:53;16.70;99.90
62991;DHT22;49084;48.204;16.202;2023-09-19T03:56:19;16.70;99.90
62991;DHT22;49084;48.204;16.202;2023-09-19T03:58:45;16.70;99.90
62991;DHT22;49084;48.204;16.202;2023-09-19T04:01:10;16.70;99.90
62991;DHT22;49084;48.204;16.202;2023-09-19T04:03:36;16.70;99.90
62991;DHT22;49084;48.204;16.202;2023-09-19T04:06:16;16.70;99.90
62991;DHT22;49084;48.204;16.202;2023-09-19T04:08:42;16.70;99.90
62991;DHT22;49084;48.204;16.202;2023-09-19T04:11:09;16.70;99.90
62991;DHT22;49084;48.204;16.202;2023-09-19T04:13:35;16.70;99.90
62991;DHT22;49084;48.204;16.202;2023-09-19T04:16:00;16.70;99.90
62991;DHT22;49084;48.204;16.202;2023-09-19T04:18:26;16.70;99.90
62991;DHT22;49084;48.204;16.202;2023-09-19T04:20:52;16.80;99.90
62991;DHT22;49084;48.204;16.202;2023-09-19T04:23:19;16.80;99.90
62991;DHT22;49084;48.204;16.202;2023-09-19T04:25:47;16.80;99.90
62991;DHT22;49084;48.204;16.202;2023-09-19T04:28:14;16.80;99.90
62991;DHT22;49084;48.204;16.202;2023-09-19T04:30:41;16.80;99.90
62991;DHT22;49084;48.204;16.202;2023-09-19T04:33:07;16.80;99.90
62991;DHT22;49084;48.204;16.202;2023-09-19T04:35:33;16.80;99.90
62991;DHT22;49084;48.204;16.202;2023-09-19T04:37:59;16.70;99.90
62991;DHT22;49084;48.204;16.202;2023-09-19T04:40:25;16.80;99.90
62991;DHT22;49084;48.204;16.202;2023-09-19T04:42:58;16.90;99.90
62991;DHT22;49084;48.204;16.202;2023-09-19T04:45:24;17.00;99.90
62991;DHT22;49084;48.204;16.202;2023-09-19T04:47:50;17.00;99.90
62991;DHT22;49084;48.204;16.202;2023-09-19T04:50:15;17.00;99.90
62991;DHT22;49084;48.204;16.202;2023-09-19T04:52:43;16.90;99.90
62991;DHT22;49084;48.204;16.202;2023-09-19T04:55:13;16.80;99.90
62991;DHT22;49084;48.204;16.202;2023-09-19T04:57:46;16.60;99.90
62991;DHT22;49084;48.204;16.202;2023-09-19T05:00:23;16.50;99.90
62991;DHT22;49084;48.204;16.202;2023-09-19T05:02:56;16.40;99.90
62991;DHT22;49084;48.204;16.202;2023-09-19T05:05:22;16.30;99.90
62991;DHT22;49084;48.204;16.202;2023-09-19T05:07:49;16.20;99.90
62991;DHT22;49084;48.204;16.202;2023-09-19T05:10:19;16.20;99.90
62991;DHT22;49084;48.204;16.202;2023-09-19T05:12:45;16.10;99.90
62991;DHT22;49084;48.204;16.202;2023-09-19T05:15:13;16.10;99.90
62991;DHT22;49084;48.204;16.202;2023-09-19T05:17:40;16.00;99.90
62991;DHT22;49084;48.204;16.202;2023-09-19T05:20:06;16.00;99.90
62991;DHT22;49084;48.204;16.202;2023-09-19T05:22:42;16.00;99.90
62991;DHT22;49084;48.204;16.202;2023-09-19T05:25:09;16.00;99.90
62991;DHT22;49084;48.204;16.202;2023-09-19T05:27:35;16.00;99.90
62991;DHT22;49084;48.204;16.202;2023-09-19T05:30:01;16.00;99.90
62991;DHT22;49084;48.204;16.202;2023-09-19T05:32:26;16.00;99.90
62991;DHT22;49084;48.204;16.202;2023-09-19T05:34:52;16.00;99.90
62991;DHT22;49084;48.204;16.202;2023-09-19T05:37:19;16.00;99.90
62991;DHT22;49084;48.204;16.202;2023-09-19T05:39:45;16.00;99.90
62991;DHT22;49084;48.204;16.202;2023-09-19T05:42:10;16.00;99.90
62991;DHT22;49084;48.204;16.202;2023-09-19T05:44:36;16.00;99.90
62991;DHT22;49084;48.204;16.202;2023-09-19T05:47:03;16.00;99.90
62991;DHT22;49084;48.204;16.202;2023-09-19T05:49:28;16.00;99.90
62991;DHT22;49084;48.204;16.202;2023-09-19T05:51:54;16.10;99.90
62991;DHT22;49084;48.204;16.202;2023-09-19T05:54:21;16.10;99.90
62991;DHT22;49084;48.204;16.202;2023-09-19T05:56:47;16.20;99.90
62991;DHT22;49084;48.204;16.202;2023-09-19T05:59:19;16.20;99.90
62991;DHT22;49084;48.204;16.202;2023-09-19T06:01:45;16.20;99.90
62991;DHT22;49084;48.204;16.202;2023-09-19T06:04:12;16.20;99.90
62991;DHT22;49084;48.204;16.202;2023-09-19T06:06:38;16.30;99.90
62991;DHT22;49084;48.204;16.202;2023-09-19T06:09:06;16.40;99.90
62991;DHT22;49084;48.204;16.202;2023-09-19T06:11:37;16.40;99.90
62991;DHT22;49084;48.204;16.202;2023-09-19T06:14:03;16.40;99.90
62991;DHT22;49084;48.204;16.202;2023-09-19T06:16:31;16.40;99.90
62991;DHT22;49084;48.204;16.202;2023-09-19T06:18:57;16.30;99.90
62991;DHT22;49084;48.204;16.202;2023-09-19T06:21:24;16.40;99.90
62991;DHT22;49084;48.204;16.202;2023-09-19T06:23:49;16.40;99.90
62991;DHT22;49084;48.204;16.202;2023-09-19T06:26:15;16.50;99.90
62991;DHT22;49084;48.204;16.202;2023-09-19T06:28:41;16.70;99.90
62991;DHT22;49084;48.204;16.202;2023-09-19T06:31:08;16.70;99.90
62991;DHT22;49084;48.204;16.202;2023-09-19T06:33:36;16.70;99.90
62991;DHT22;49084;48.204;16.202;2023-09-19T06:36:08;16.70;99.90
62991;DHT22;49084;48.204;16.202;2023-09-19T06:38:34;16.80;99.90
62991;DHT22;49084;48.204;16.202;2023-09-19T06:41:02;16.80;99.90
62991;DHT22;49084;48.204;16.202;2023-09-19T06:43:33;16.90;99.90
62991;DHT22;49084;48.204;16.202;2023-09-19T06:46:00;16.90;99.90
62991;DHT22;49084;48.204;16.202;2023-09-19T06:48:26;17.00;99.90
62991;DHT22;49084;48.204;16.202;2023-09-19T06:50:58;17.00;99.90
62991;DHT22;49084;48.204;16.202;2023-09-19T06:53:24;17.00;99.90
62991;DHT22;49084;48.204;16.202;2023-09-19T06:55:53;17.00;99.90
62991;DHT22;49084;48.204;16.202;2023-09-19T06:58:19;17.10;99.90
62991;DHT22;49084;48.204;16.202;2023-09-19T07:00:46;17.10;99.90
62991;DHT22;49084;48.204;16.202;2023-09-19T07:03:13;17.10;99.90
62991;DHT22;49084;48.204;16.202;2023-09-19T07:05:40;17.30;99.90
62991;DHT22;49084;48.204;16.202;2023-09-19T07:08:06;17.30;99.90
62991;DHT22;49084;48.204;16.202;2023-09-19T07:10:33;17.30;99.90
62991;DHT22;49084;48.204;16.202;2023-09-19T07:13:05;17.40;99.90
62991;DHT22;49084;48.204;16.202;2023-09-19T07:15:37;17.40;99.90
62991;DHT22;49084;48.204;16.202;2023-09-19T07:18:05;17.50;99.90
62991;DHT22;49084;48.204;16.202;2023-09-19T07:20:31;17.50;99.90
62991;DHT22;49084;48.204;16.202;2023-09-19T07:22:58;17.60;99.90
62991;DHT22;49084;48.204;16.202;2023-09-19T07:25:28;17.60;99.90
62991;DHT22;49084;48.204;16.202;2023-09-19T07:27:57;17.80;99.90
62991;DHT22;49084;48.204;16.202;2023-09-19T07:30:26;17.80;99.90
62991;DHT22;49084;48.204;16.202;2023-09-19T07:32:52;18.00;99.90
62991;DHT22;49084;48.204;16.202;2023-09-19T07:35:18;18.10;99.90
62991;DHT22;49084;48.204;16.202;2023-09-19T07:37:46;18.10;99.90
62991;DHT22;49084;48.204;16.202;2023-09-19T07:40:15;18.20;99.90
62991;DHT22;49084;48.204;16.202;2023-09-19T07:42:41;18.30;99.90
62991;DHT22;49084;48.204;16.202;2023-09-19T07:45:10;18.40;99.90
62991;DHT22;49084;48.204;16.202;2023-09-19T07:47:47;18.50;99.90
62991;DHT22;49084;48.204;16.202;2023-09-19T07:50:14;18.60;99.90
62991;DHT22;49084;48.204;16.202;2023-09-19T07:52:41;18.70;99.90
62991;DHT22;49084;48.204;16.202;2023-09-19T07:55:08;18.90;99.90
62991;DHT22;49084;48.204;16.202;2023-09-19T07:57:35;19.00;99.90
62991;DHT22;49084;48.204;16.202;2023-09-19T08:00:01;19.20;99.90
62991;DHT22;49084;48.204;16.202;2023-09-19T08:02:33;19.40;99.90
62991;DHT22;49084;48.204;16.202;2023-09-19T08:04:59;19.50;99.90
62991;DHT22;49084;48.204;16.202;2023-09-19T08:07:26;19.40;99.90
62991;DHT22;49084;48.204;16.202;2023-09-19T08:09:51;19.60;99.90
62991;DHT22;49084;48.204;16.202;2023-09-19T08:12:17;19.50;99.90
62991;DHT22;49084;48.204;16.202;2023-09-19T08:14:43;19.50;99.90
62991;DHT22;49084;48.204;16.202;2023-09-19T08:17:09;19.50;99.90
62991;DHT22;49084;48.204;16.202;2023-09-19T08:19:34;19.50;99.90
62991;DHT22;49084;48.204;16.202;2023-09-19T08:22:01;19.60;99.90
62991;DHT22;49084;48.204;16.202;2023-09-19T08:24:29;19.60;99.90
62991;DHT22;49084;48.204;16.202;2023-09-19T08:26:55;19.50;99.90
62991;DHT22;49084;48.204;16.202;2023-09-19T08:29:22;19.60;99.90
62991;DHT22;49084;48.204;16.202;2023-09-19T08:31:56;19.60;99.90
62991;DHT22;49084;48.204;16.202;2023-09-19T08:34:22;19.70;99.90
62991;DHT22;49084;48.204;16.202;2023-09-19T08:36:50;19.70;99.90
62991;DHT22;49084;48.204;16.202;2023-09-19T08:39:16;19.70;99.90
62991;DHT22;49084;48.204;16.202;2023-09-19T08:41:42;19.60;99.90
62991;DHT22;49084;48.204;16.202;2023-09-19T08:44:08;19.50;99.90
62991;DHT22;49084;48.204;16.202;2023-09-19T08:46:36;19.60;99.90
62991;DHT22;49084;48.204;16.202;2023-09-19T08:49:05;19.60;99.90
62991;DHT22;49084;48.204;16.202;2023-09-19T08:51:43;19.50;99.90
62991;DHT22;49084;48.204;16.202;2023-09-19T08:54:24;19.50;99.90
62991;DHT22;49084;48.204;16.202;2023-09-19T08:56:54;19.50;99.90
62991;DHT22;49084;48.204;16.202;2023-09-19T08:59:23;19.70;99.90
62991;DHT22;49084;48.204;16.202;2023-09-19T09:01:50;19.70;99.90
62991;DHT22;49084;48.204;16.202;2023-09-19T09:04:18;19.80;99.90
62991;DHT22;49084;48.204;16.202;2023-09-19T09:06:46;19.80;99.90
62991;DHT22;49084;48.204;16.202;2023-09-19T09:09:17;19.80;99.90
62991;DHT22;49084;48.204;16.202;2023-09-19T09:11:42;19.90;99.90
62991;DHT22;49084;48.204;16.202;2023-09-19T09:14:08;19.90;99.90
62991;DHT22;49084;48.204;16.202;2023-09-19T09:16:34;20.10;99.90
62991;DHT22;49084;48.204;16.202;2023-09-19T09:19:00;20.50;99.90
62991;DHT22;49084;48.204;16.202;2023-09-19T09:21:27;20.70;99.90
62991;DHT22;49084;48.204;16.202;2023-09-19T09:23:54;20.70;99.90
62991;DHT22;49084;48.204;16.202;2023-09-19T09:26:41;20.90;99.90
62991;DHT22;49084;48.204;16.202;2023-09-19T09:29:10;21.40;99.90
62991;DHT22;49084;48.204;16.202;2023-09-19T09:31:36;21.80;99.90
62991;DHT22;49084;48.204;16.202;2023-09-19T09:34:03;22.20;99.90
62991;DHT22;49084;48.204;16.202;2023-09-19T09:36:35;22.30;99.90
62991;DHT22;49084;48.204;16.202;2023-09-19T09:39:02;22.30;99.90
62991;DHT22;49084;48.204;16.202;2023-09-19T09:41:41;22.30;99.90
62991;DHT22;49084;48.204;16.202;2023-09-19T09:44:17;22.40;99.90
62991;DHT22;49084;48.204;16.202;2023-09-19T09:46:45;22.50;99.90
62991;DHT22;49084;48.204;16.202;2023-09-19T09:49:24;22.70;99.90
62991;DHT22;49084;48.204;16.202;2023-09-19T09:52:05;22.80;99.90
62991;DHT22;49084;48.204;16.202;2023-09-19T09:54:36;22.40;99.90
62991;DHT22;49084;48.204;16.202;2023-09-19T09:57:09;22.30;99.90
62991;DHT22;49084;48.204;16.202;2023-09-19T10:02:21;23.50;99.90
62991;DHT22;49084;48.204;16.202;2023-09-19T10:04:51;24.20;99.90
62991;DHT22;49084;48.204;16.202;2023-09-19T10:07:28;25.50;99.80
62991;DHT22;49084;48.204;16.202;2023-09-19T10:09:59;25.90;97.90
62991;DHT22;49084;48.204;16.202;2023-09-19T10:12:32;25.80;97.20
62991;DHT22;49084;48.204;16.202;2023-09-19T10:15:03;25.20;97.60
62991;DHT22;49084;48.204;16.202;2023-09-19T10:17:34;25.20;97.40
62991;DHT22;49084;48.204;16.202;2023-09-19T10:20:02;25.10;96.80
62991;DHT22;49084;48.204;16.202;2023-09-19T10:22:46;24.60;97.50
62991;DHT22;49084;48.204;16.202;2023-09-19T10:25:24;24.80;97.60
62991;DHT22;49084;48.204;16.202;2023-09-19T10:27:52;24.90;97.60
62991;DHT22;49084;48.204;16.202;2023-09-19T10:30:22;24.70;97.20
62991;DHT22;49084;48.204;16.202;2023-09-19T10:33:03;24.50;98.20
62991;DHT22;49084;48.204;16.202;2023-09-19T10:35:29;24.60;98.60
62991;DHT22;49084;48.204;16.202;2023-09-19T10:38:00;25.20;96.50
62991;DHT22;49084;48.204;16.202;2023-09-19T10:40:29;26.20;95.80
62991;DHT22;49084;48.204;16.202;2023-09-19T10:43:03;26.80;94.40
62991;DHT22;49084;48.204;16.202;2023-09-19T10:45:31;27.00;92.40
62991;DHT22;49084;48.204;16.202;2023-09-19T10:47:58;26.10;92.50
62991;DHT22;49084;48.204;16.202;2023-09-19T10:50:24;25.90;93.30
62991;DHT22;49084;48.204;16.202;2023-09-19T10:52:53;26.50;92.50
62991;DHT22;49084;48.204;16.202;2023-09-19T10:55:31;27.30;91.90
62991;DHT22;49084;48.204;16.202;2023-09-19T10:57:58;27.60;91.60
62991;DHT22;49084;48.204;16.202;2023-09-19T11:00:56;28.00;89.40
62991;DHT22;49084;48.204;16.202;2023-09-19T11:03:24;28.60;88.00
62991;DHT22;49084;48.204;16.202;2023-09-19T11:06:08;28.40;85.30
62991;DHT22;49084;48.204;16.202;2023-09-19T11:09:07;28.70;85.40
62991;DHT22;49084;48.204;16.202;2023-09-19T11:25:41;28.70;78.90
62991;DHT22;49084;48.204;16.202;2023-09-19T11:30:42;28.80;77.40
62991;DHT22;49084;48.204;16.202;2023-09-19T11:33:40;29.20;77.40
62991;DHT22;49084;48.204;16.202;2023-09-19T11:36:16;29.00;77.20
62991;DHT22;49084;48.204;16.202;2023-09-19T11:39:05;29.50;75.60
62991;DHT22;49084;48.204;16.202;2023-09-19T11:41:40;29.70;74.80
62991;DHT22;49084;48.204;16.202;2023-09-19T11:49:26;30.50;72.80
62991;DHT22;49084;48.204;16.202;2023-09-19T11:51:56;29.60;73.10
62991;DHT22;49084;48.204;16.202;2023-09-19T11:54:22;29.30;73.80
62991;DHT22;49084;48.204;16.202;2023-09-19T11:56:53;29.60;72.20
62991;DHT22;49084;48.204;16.202;2023-09-19T11:59:23;29.50;71.40
62991;DHT22;49084;48.204;16.202;2023-09-19T12:01:54;29.90;71.10
62991;DHT22;49084;48.204;16.202;2023-09-19T12:07:12;28.70;73.10
62991;DHT22;49084;48.204;16.202;2023-09-19T12:09:50;28.90;72.20
62991;DHT22;49084;48.204;16.202;2023-09-19T12:12:23;28.70;73.00
62991;DHT22;49084;48.204;16.202;2023-09-19T12:14:53;28.60;72.40
62991;DHT22;49084;48.204;16.202;2023-09-19T12:17:20;28.80;73.50
62991;DHT22;49084;48.204;16.202;2023-09-19T12:19:53;29.20;72.60
62991;DHT22;49084;48.204;16.202;2023-09-19T12:22:19;28.90;73.00
62991;DHT22;49084;48.204;16.202;2023-09-19T12:24:46;28.90;71.80
62991;DHT22;49084;48.204;16.202;2023-09-19T12:27:12;28.70;72.00
62991;DHT22;49084;48.204;16.202;2023-09-19T12:29:46;28.60;72.30
62991;DHT22;49084;48.204;16.202;2023-09-19T12:32:14;28.80;71.10
62991;DHT22;49084;48.204;16.202;2023-09-19T12:34:49;28.50;71.80
62991;DHT22;49084;48.204;16.202;2023-09-19T12:37:16;28.70;71.40
62991;DHT22;49084;48.204;16.202;2023-09-19T12:39:51;28.70;71.10
62991;DHT22;49084;48.204;16.202;2023-09-19T12:42:25;28.80;71.60
62991;DHT22;49084;48.204;16.202;2023-09-19T12:44:55;29.50;70.40
62991;DHT22;49084;48.204;16.202;2023-09-19T12:47:23;29.50;69.50
62991;DHT22;49084;48.204;16.202;2023-09-19T12:50:11;29.70;68.30
62991;DHT22;49084;48.204;16.202;2023-09-19T12:55:42;29.30;66.20
62991;DHT22;49084;48.204;16.202;2023-09-19T12:58:12;29.10;68.00
62991;DHT22;49084;48.204;16.202;2023-09-19T13:00:39;28.80;68.30
62991;DHT22;49084;48.204;16.202;2023-09-19T13:03:18;29.20;69.00
62991;DHT22;49084;48.204;16.202;2023-09-19T13:05:58;29.30;67.20
62991;DHT22;49084;48.204;16.202;2023-09-19T13:08:35;29.40;67.20
62991;DHT22;49084;48.204;16.202;2023-09-19T13:13:32;28.60;65.70
62991;DHT22;49084;48.204;16.202;2023-09-19T13:15:59;28.20;66.40
62991;DHT22;49084;48.204;16.202;2023-09-19T13:18:27;28.40;66.50
62991;DHT22;49084;48.204;16.202;2023-09-19T13:21:09;28.70;65.10
62991;DHT22;49084;48.204;16.202;2023-09-19T13:23:43;28.90;63.70
62991;DHT22;49084;48.204;16.202;2023-09-19T13:26:10;29.00;63.70
62991;DHT22;49084;48.204;16.202;2023-09-19T13:28:37;29.30;63.40
62991;DHT22;49084;48.204;16.202;2023-09-19T13:31:03;29.20;63.60
62991;DHT22;49084;48.204;16.202;2023-09-19T13:33:29;28.80;64.60
62991;DHT22;49084;48.204;16.202;2023-09-19T13:35:54;28.80;64.20
62991;DHT22;49084;48.204;16.202;2023-09-19T13:38:22;29.10;64.20
62991;DHT22;49084;48.204;16.202;2023-09-19T13:40:48;29.20;64.60
62991;DHT22;49084;48.204;16.202;2023-09-19T13:43:14;28.80;64.30
62991;DHT22;49084;48.204;16.202;2023-09-19T13:45:41;28.40;65.20
62991;DHT22;49084;48.204;16.202;2023-09-19T13:48:09;29.70;67.00
62991;DHT22;49084;48.204;16.202;2023-09-19T13:50:37;28.30;66.00
62991;DHT22;49084;48.204;16.202;2023-09-19T13:53:08;28.50;65.70
62991;DHT22;49084;48.204;16.202;2023-09-19T13:55:33;28.10;66.30
62991;DHT22;49084;48.204;16.202;2023-09-19T13:57:59;28.00;65.80
62991;DHT22;49084;48.204;16.202;2023-09-19T14:00:25;27.90;66.20
62991;DHT22;49084;48.204;16.202;2023-09-19T14:02:51;28.20;66.00
62991;DHT22;49084;48.204;16.202;2023-09-19T14:05:17;28.20;66.10
62991;DHT22;49084;48.204;16.202;2023-09-19T14:07:44;28.50;64.50
62991;DHT22;49084;48.204;16.202;2023-09-19T14:10:11;28.50;64.80
62991;DHT22;49084;48.204;16.202;2023-09-19T14:12:37;28.70;65.10
62991;DHT22;49084;48.204;16.202;2023-09-19T14:15:06;28.70;64.00
62991;DHT22;49084;48.204;16.202;2023-09-19T14:17:32;28.50;64.60
62991;DHT22;49084;48.204;16.202;2023-09-19T14:19:58;28.90;64.60
62991;DHT22;49084;48.204;16.202;2023-09-19T14:22:24;28.70;64.40
62991;DHT22;49084;48.204;16.202;2023-09-19T14:24:49;28.00;65.30
62991;DHT22;49084;48.204;16.202;2023-09-19T14:27:15;28.30;66.00
62991;DHT22;49084;48.204;16.202;2023-09-19T14:29:40;28.20;64.90
62991;DHT22;49084;48.204;16.202;2023-09-19T14:32:07;27.90;66.20
62991;DHT22;49084;48.204;16.202;2023-09-19T14:34:32;27.40;66.90
62991;DHT22;49084;48.204;16.202;2023-09-19T14:36:58;27.30;67.20
62991;DHT22;49084;48.204;16.202;2023-09-19T14:39:24;27.40;67.20
62991;DHT22;49084;48.204;16.202;2023-09-19T14:41:50;27.40;67.50
62991;DHT22;49084;48.204;16.202;2023-09-19T14:44:16;27.60;68.30
62991;DHT22;49084;48.204;16.202;2023-09-19T14:46:42;27.90;67.70
62991;DHT22;49084;48.204;16.202;2023-09-19T14:49:11;28.00;67.50
62991;DHT22;49084;48.204;16.202;2023-09-19T14:51:38;28.10;67.50
62991;DHT22;49084;48.204;16.202;2023-09-19T14:54:05;28.00;67.20
62991;DHT22;49084;48.204;16.202;2023-09-19T14:56:33;27.70;68.30
62991;DHT22;49084;48.204;16.202;2023-09-19T14:58:59;27.50;68.30
62991;DHT22;49084;48.204;16.202;2023-09-19T15:01:25;27.70;68.70
62991;DHT22;49084;48.204;16.202;2023-09-19T15:03:51;28.00;68.50
62991;DHT22;49084;48.204;16.202;2023-09-19T15:06:17;28.30;68.00
62991;DHT22;49084;48.204;16.202;2023-09-19T15:08:46;28.30;67.80
62991;DHT22;49084;48.204;16.202;2023-09-19T15:11:18;28.00;67.90
62991;DHT22;49084;48.204;16.202;2023-09-19T15:13:50;27.70;67.80
62991;DHT22;49084;48.204;16.202;2023-09-19T15:16:16;27.10;68.20
62991;DHT22;49084;48.204;16.202;2023-09-19T15:18:45;26.80;69.10
62991;DHT22;49084;48.204;16.202;2023-09-19T15:21:14;26.60;69.10
62991;DHT22;49084;48.204;16.202;2023-09-19T15:23:42;26.60;70.00
62991;DHT22;49084;48.204;16.202;2023-09-19T15:26:11;25.90;70.90
62991;DHT22;49084;48.204;16.202;2023-09-19T15:28:37;25.80;70.60
62991;DHT22;49084;48.204;16.202;2023-09-19T15:31:04;26.00;72.10
62991;DHT22;49084;48.204;16.202;2023-09-19T15:33:32;26.50;71.40
62991;DHT22;49084;48.204;16.202;2023-09-19T15:36:05;26.70;70.20
62991;DHT22;49084;48.204;16.202;2023-09-19T15:41:14;26.60;70.80
62991;DHT22;49084;48.204;16.202;2023-09-19T15:43:41;26.40;71.10
62991;DHT22;49084;48.204;16.202;2023-09-19T15:46:07;26.30;71.60
62991;DHT22;49084;48.204;16.202;2023-09-19T15:48:33;25.80;71.60
62991;DHT22;49084;48.204;16.202;2023-09-19T15:51:03;25.40;73.10
62991;DHT22;49084;48.204;16.202;2023-09-19T15:53:56;25.00;73.80
62991;DHT22;49084;48.204;16.202;2023-09-19T15:56:23;24.60;75.00
62991;DHT22;49084;48.204;16.202;2023-09-19T15:58:51;24.30;74.90
62991;DHT22;49084;48.204;16.202;2023-09-19T16:01:18;24.20;75.80
62991;DHT22;49084;48.204;16.202;2023-09-19T16:03:55;24.30;75.70
62991;DHT22;49084;48.204;16.202;2023-09-19T16:06:24;24.30;75.80
62991;DHT22;49084;48.204;16.202;2023-09-19T16:08:53;24.10;76.40
62991;DHT22;49084;48.204;16.202;2023-09-19T16:11:22;23.60;77.50